sensor_id;sensor_type;location;lat;lon;timestamp;pressure;altitude;pressure_sealevel;temperature;humidity
68329;BME280;55182;56.864;60.554;2023-02-01T00:01:40;76293.53;;;-143.60;66.65
68329;BME280;55182;56.864;60.554;2023-02-01T00:04:06;76297.56;;;-143.60;66.35
68329;BME280;55182;56.864;60.554;2023-02-01T00:06:31;76299.56;;;-143.60;65.34
68329;BME280;55182;56.864;60.554;2023-02-01T00:08:57;76299.56;;;-143.60;64.64
68329;BME280;55182;56.864;60.554;2023-02-01T00:11:23;76291.53;;;-143.60;64.46
68329;BME280;55182;56.864;60.554;2023-02-01T00:13:49;76299.56;;;-143.60;64.12
68329;BME280;55182;56.864;60.554;2023-02-01T00:16:16;76299.56;;;-143.60;63.38
68329;BME280;55182;56.864;60.554;2023-02-01T00:18:46;76295.56;;;-143.60;63.11
68329;BME280;55182;56.864;60.554;2023-02-01T00:21:16;76303.59;;;-143.60;62.81
68329;BME280;55182;56.864;60.554;2023-02-01T00:23:42;76301.59;;;-143.60;63.14
68329;BME280;55182;56.864;60.554;2023-02-01T00:26:13;76303.59;;;-143.60;63.19
68329;BME280;55182;56.864;60.554;2023-02-01T00:28:39;76305.59;;;-143.60;62.67
68329;BME280;55182;56.864;60.554;2023-02-01T00:31:05;76307.59;;;-143.60;62.98
68329;BME280;55182;56.864;60.554;2023-02-01T00:33:30;76309.63;;;-143.60;63.31
68329;BME280;55182;56.864;60.554;2023-02-01T00:36:00;76315.66;;;-143.60;63.36
68329;BME280;55182;56.864;60.554;2023-02-01T00:38:26;76311.63;;;-143.60;62.73
68329;BME280;55182;56.864;60.554;2023-02-01T00:40:51;76313.63;;;-143.60;62.57
68329;BME280;55182;56.864;60.554;2023-02-01T00:43:17;76317.66;;;-143.60;61.91
68329;BME280;55182;56.864;60.554;2023-02-01T00:45:42;76315.66;;;-143.60;61.86
68329;BME280;55182;56.864;60.554;2023-02-01T00:48:08;76317.66;;;-143.60;60.32
68329;BME280;55182;56.864;60.554;2023-02-01T00:50:33;76313.63;;;-143.60;59.62
68329;BME280;55182;56.864;60.554;2023-02-01T00:52:59;76315.66;;;-143.60;59.00
68329;BME280;55182;56.864;60.554;2023-02-01T00:55:24;76325.69;;;-143.60;59.31
68329;BME280;55182;56.864;60.554;2023-02-01T00:57:50;76327.69;;;-143.60;59.19
68329;BME280;55182;56.864;60.554;2023-02-01T01:00:15;76329.72;;;-143.60;58.80
68329;BME280;55182;56.864;60.554;2023-02-01T01:02:41;76335.75;;;-143.60;58.78
68329;BME280;55182;56.864;60.554;2023-02-01T01:05:07;76337.75;;;-143.60;58.87
68329;BME280;55182;56.864;60.554;2023-02-01T01:07:32;76335.75;;;-143.60;58.31
68329;BME280;55182;56.864;60.554;2023-02-01T01:09:58;76337.75;;;-143.60;58.65
68329;BME280;55182;56.864;60.554;2023-02-01T01:12:24;76341.78;;;-143.60;58.97
68329;BME280;55182;56.864;60.554;2023-02-01T01:14:49;76341.78;;;-143.60;57.72
68329;BME280;55182;56.864;60.554;2023-02-01T01:17:15;76345.78;;;-143.60;57.22
68329;BME280;55182;56.864;60.554;2023-02-01T01:19:40;76347.81;;;-143.60;57.46
68329;BME280;55182;56.864;60.554;2023-02-01T01:22:06;76355.84;;;-143.60;57.37
68329;BME280;55182;56.864;60.554;2023-02-01T01:24:32;76353.81;;;-143.60;56.88
68329;BME280;55182;56.864;60.554;2023-02-01T01:26:57;76359.84;;;-143.60;56.89
68329;BME280;55182;56.864;60.554;2023-02-01T01:29:23;76371.91;;;-143.60;56.82
68329;BME280;55182;56.864;60.554;2023-02-01T01:31:48;76381.97;;;-143.60;57.22
68329;BME280;55182;56.864;60.554;2023-02-01T01:34:15;76396.03;;;-143.60;57.22
68329;BME280;55182;56.864;60.554;2023-02-01T01:36:40;76396.03;;;-143.60;56.34
68329;BME280;55182;56.864;60.554;2023-02-01T01:39:06;76404.06;;;-143.60;56.68
68329;BME280;55182;56.864;60.554;2023-02-01T01:41:34;76398.03;;;-143.60;56.34
68329;BME280;55182;56.864;60.554;2023-02-01T01:46:54;76412.09;;;-143.60;56.10
68329;BME280;55182;56.864;60.554;2023-02-01T01:49:21;76410.09;;;-143.60;55.97
68329;BME280;55182;56.864;60.554;2023-02-01T01:51:48;76412.09;;;-143.60;56.13
68329;BME280;55182;56.864;60.554;2023-02-01T01:56:50;76430.19;;;-143.60;55.92
68329;BME280;55182;56.864;60.554;2023-02-01T01:59:19;76444.25;;;-143.60;55.92
68329;BME280;55182;56.864;60.554;2023-02-01T02:01:46;76450.28;;;-143.60;55.97
68329;BME280;55182;56.864;60.554;2023-02-01T02:04:12;76456.31;;;-143.60;56.23
68329;BME280;55182;56.864;60.554;2023-02-01T02:09:06;76478.44;;;-143.60;56.34
68329;BME280;55182;56.864;60.554;2023-02-01T02:11:32;76486.47;;;-143.60;56.33
68329;BME280;55182;56.864;60.554;2023-02-01T02:13:58;76492.50;;;-143.60;56.40
68329;BME280;55182;56.864;60.554;2023-02-01T02:16:33;76500.53;;;-143.60;56.83
68329;BME280;55182;56.864;60.554;2023-02-01T02:22:48;76502.53;;;-143.60;56.34
68329;BME280;55182;56.864;60.554;2023-02-01T02:32:29;76508.56;;;-143.60;56.30
68329;BME280;55182;56.864;60.554;2023-02-01T02:37:46;76524.66;;;-143.60;56.78
68329;BME280;55182;56.864;60.554;2023-02-01T02:40:19;76540.72;;;-143.60;57.22
68329;BME280;55182;56.864;60.554;2023-02-01T02:43:04;76544.75;;;-143.60;57.18
68329;BME280;55182;56.864;60.554;2023-02-01T02:48:41;76584.94;;;-143.60;58.14
68329;BME280;55182;56.864;60.554;2023-02-01T02:51:15;76609.06;;;-143.60;58.40
68329;BME280;55182;56.864;60.554;2023-02-01T02:56:12;76637.19;;;-143.60;58.51
68329;BME280;55182;56.864;60.554;2023-02-01T02:58:37;76645.22;;;-143.60;59.41
68329;BME280;55182;56.864;60.554;2023-02-01T03:01:03;76653.25;;;-143.60;59.10
68329;BME280;55182;56.864;60.554;2023-02-01T03:03:29;76651.25;;;-143.60;59.42
68329;BME280;55182;56.864;60.554;2023-02-01T03:05:55;76665.31;;;-143.60;59.27
68329;BME280;55182;56.864;60.554;2023-02-01T03:08:25;76679.41;;;-143.60;59.52
68329;BME280;55182;56.864;60.554;2023-02-01T03:10:58;76685.44;;;-143.60;59.59
68329;BME280;55182;56.864;60.554;2023-02-01T03:13:27;76695.47;;;-143.60;59.45
68329;BME280;55182;56.864;60.554;2023-02-01T03:21:04;76705.53;;;-143.60;59.82
68329;BME280;55182;56.864;60.554;2023-02-01T03:23:33;76719.59;;;-143.60;60.31
68329;BME280;55182;56.864;60.554;2023-02-01T03:26:00;76725.63;;;-143.60;60.80
68329;BME280;55182;56.864;60.554;2023-02-01T03:28:28;76739.69;;;-143.60;60.84
68329;BME280;55182;56.864;60.554;2023-02-01T03:30:56;76743.72;;;-143.60;61.07
68329;BME280;55182;56.864;60.554;2023-02-01T03:33:23;76745.72;;;-143.60;60.64
68329;BME280;55182;56.864;60.554;2023-02-01T03:41:35;76735.66;;;-143.60;59.38
68329;BME280;55182;56.864;60.554;2023-02-01T03:46:38;76729.63;;;-143.60;59.02
68329;BME280;55182;56.864;60.554;2023-02-01T03:49:06;76721.59;;;-143.60;58.79
68329;BME280;55182;56.864;60.554;2023-02-01T03:51:35;76727.63;;;-143.60;58.81
68329;BME280;55182;56.864;60.554;2023-02-01T03:54:02;76735.66;;;-143.60;58.38
68329;BME280;55182;56.864;60.554;2023-02-01T03:56:29;76731.66;;;-143.60;58.75
68329;BME280;55182;56.864;60.554;2023-02-01T03:58:55;76747.72;;;-143.60;58.97
68329;BME280;55182;56.864;60.554;2023-02-01T04:01:20;76759.78;;;-143.60;59.00
68329;BME280;55182;56.864;60.554;2023-02-01T04:03:46;76757.78;;;-143.60;58.87
68329;BME280;55182;56.864;60.554;2023-02-01T04:06:12;76757.78;;;-143.60;58.77
68329;BME280;55182;56.864;60.554;2023-02-01T04:08:37;76763.81;;;-143.60;58.60
68329;BME280;55182;56.864;60.554;2023-02-01T04:11:03;76765.81;;;-143.60;58.72
68329;BME280;55182;56.864;60.554;2023-02-01T04:13:28;76767.81;;;-143.60;58.60
68329;BME280;55182;56.864;60.554;2023-02-01T04:15:54;76777.88;;;-143.60;58.63
68329;BME280;55182;56.864;60.554;2023-02-01T04:18:19;76777.88;;;-143.60;58.99
68329;BME280;55182;56.864;60.554;2023-02-01T04:20:45;76787.91;;;-143.60;58.86
68329;BME280;55182;56.864;60.554;2023-02-01T04:23:11;76789.94;;;-143.60;58.90
68329;BME280;55182;56.864;60.554;2023-02-01T04:25:36;76797.97;;;-143.60;59.00
68329;BME280;55182;56.864;60.554;2023-02-01T04:28:02;76797.97;;;-143.60;59.49
68329;BME280;55182;56.864;60.554;2023-02-01T04:30:27;76808.03;;;-143.60;59.40
68329;BME280;55182;56.864;60.554;2023-02-01T04:32:52;76814.06;;;-143.60;59.55
68329;BME280;55182;56.864;60.554;2023-02-01T04:35:18;76814.06;;;-143.60;58.99
68329;BME280;55182;56.864;60.554;2023-02-01T04:37:44;76810.03;;;-143.60;58.82
68329;BME280;55182;56.864;60.554;2023-02-01T04:40:09;76812.03;;;-143.60;59.00
68329;BME280;55182;56.864;60.554;2023-02-01T04:42:35;76810.03;;;-143.60;59.13
68329;BME280;55182;56.864;60.554;2023-02-01T04:45:01;76816.06;;;-143.60;58.92
68329;BME280;55182;56.864;60.554;2023-02-01T04:47:26;76812.03;;;-143.60;59.01
68329;BME280;55182;56.864;60.554;2023-02-01T04:49:52;76814.06;;;-143.60;59.07
68329;BME280;55182;56.864;60.554;2023-02-01T04:52:17;76820.06;;;-143.60;59.00
68329;BME280;55182;56.864;60.554;2023-02-01T04:54:42;76824.09;;;-143.60;58.75
68329;BME280;55182;56.864;60.554;2023-02-01T04:57:08;76822.09;;;-143.60;58.83
68329;BME280;55182;56.864;60.554;2023-02-01T04:59:34;76824.09;;;-143.60;58.73
68329;BME280;55182;56.864;60.554;2023-02-01T05:01:59;76830.13;;;-143.60;58.83
68329;BME280;55182;56.864;60.554;2023-02-01T05:04:25;76828.13;;;-143.60;58.88
68329;BME280;55182;56.864;60.554;2023-02-01T05:06:50;76834.16;;;-143.60;59.15
68329;BME280;55182;56.864;60.554;2023-02-01T05:09:16;76844.19;;;-143.60;59.24
68329;BME280;55182;56.864;60.554;2023-02-01T05:11:42;76846.22;;;-143.60;59.31
68329;BME280;55182;56.864;60.554;2023-02-01T05:14:07;76850.22;;;-143.60;59.05
68329;BME280;55182;56.864;60.554;2023-02-01T05:16:33;76856.25;;;-143.60;59.18
68329;BME280;55182;56.864;60.554;2023-02-01T05:18:58;76858.25;;;-143.60;59.41
68329;BME280;55182;56.864;60.554;2023-02-01T05:21:24;76862.28;;;-143.60;59.29
68329;BME280;55182;56.864;60.554;2023-02-01T05:23:51;76860.28;;;-143.60;59.47
68329;BME280;55182;56.864;60.554;2023-02-01T05:26:17;76862.28;;;-143.60;59.26
68329;BME280;55182;56.864;60.554;2023-02-01T05:28:42;76856.25;;;-143.60;59.65
68329;BME280;55182;56.864;60.554;2023-02-01T05:31:10;76860.28;;;-143.60;59.22
68329;BME280;55182;56.864;60.554;2023-02-01T05:33:36;76858.25;;;-143.60;58.97
68329;BME280;55182;56.864;60.554;2023-02-01T05:36:01;76858.25;;;-143.60;58.88
68329;BME280;55182;56.864;60.554;2023-02-01T05:38:27;76850.22;;;-143.60;59.07
68329;BME280;55182;56.864;60.554;2023-02-01T05:40:52;76860.28;;;-143.60;59.08
68329;BME280;55182;56.864;60.554;2023-02-01T05:43:18;76866.31;;;-143.60;59.22
68329;BME280;55182;56.864;60.554;2023-02-01T05:45:43;76870.31;;;-143.60;59.45
68329;BME280;55182;56.864;60.554;2023-02-01T05:48:09;76864.28;;;-143.60;59.47
68329;BME280;55182;56.864;60.554;2023-02-01T05:50:34;76870.31;;;-143.60;59.45
68329;BME280;55182;56.864;60.554;2023-02-01T05:53:07;76868.31;;;-143.60;59.34
68329;BME280;55182;56.864;60.554;2023-02-01T05:55:33;76872.34;;;-143.60;59.34
68329;BME280;55182;56.864;60.554;2023-02-01T05:57:58;76872.34;;;-143.60;59.64
68329;BME280;55182;56.864;60.554;2023-02-01T06:00:24;76878.38;;;-143.60;59.53
68329;BME280;55182;56.864;60.554;2023-02-01T06:02:49;76882.38;;;-143.60;59.79
68329;BME280;55182;56.864;60.554;2023-02-01T06:05:15;76880.38;;;-143.60;59.70
68329;BME280;55182;56.864;60.554;2023-02-01T06:07:40;76880.38;;;-143.60;59.68
68329;BME280;55182;56.864;60.554;2023-02-01T06:10:06;76886.41;;;-143.60;59.79
68329;BME280;55182;56.864;60.554;2023-02-01T06:12:32;76888.41;;;-143.60;59.66
68329;BME280;55182;56.864;60.554;2023-02-01T06:14:58;76890.41;;;-143.60;59.90
68329;BME280;55182;56.864;60.554;2023-02-01T06:17:23;76894.44;;;-143.60;59.95
68329;BME280;55182;56.864;60.554;2023-02-01T06:19:49;76908.50;;;-143.60;60.13
68329;BME280;55182;56.864;60.554;2023-02-01T06:22:15;76916.56;;;-143.60;60.24
68329;BME280;55182;56.864;60.554;2023-02-01T06:24:40;76912.53;;;-143.60;60.12
68329;BME280;55182;56.864;60.554;2023-02-01T06:27:06;76908.50;;;-143.60;60.34
68329;BME280;55182;56.864;60.554;2023-02-01T06:29:32;76908.50;;;-143.60;60.63
68329;BME280;55182;56.864;60.554;2023-02-01T06:31:57;76910.53;;;-143.60;60.81
68329;BME280;55182;56.864;60.554;2023-02-01T06:34:23;76910.53;;;-143.60;60.98
68329;BME280;55182;56.864;60.554;2023-02-01T06:36:49;76906.50;;;-143.60;60.93
68329;BME280;55182;56.864;60.554;2023-02-01T06:39:15;76912.53;;;-143.60;61.13
68329;BME280;55182;56.864;60.554;2023-02-01T06:41:42;76904.50;;;-143.60;61.14
68329;BME280;55182;56.864;60.554;2023-02-01T06:44:08;76914.53;;;-143.60;61.08
68329;BME280;55182;56.864;60.554;2023-02-01T06:46:34;76910.53;;;-143.60;61.07
68329;BME280;55182;56.864;60.554;2023-02-01T06:49:01;76908.50;;;-143.60;61.08
68329;BME280;55182;56.864;60.554;2023-02-01T06:51:27;76906.50;;;-143.60;61.15
68329;BME280;55182;56.864;60.554;2023-02-01T06:53:52;76898.47;;;-143.60;60.93
68329;BME280;55182;56.864;60.554;2023-02-01T06:56:18;76892.44;;;-143.60;60.84
68329;BME280;55182;56.864;60.554;2023-02-01T06:58:44;76888.41;;;-143.60;60.92
68329;BME280;55182;56.864;60.554;2023-02-01T07:01:10;76886.41;;;-143.60;61.13
68329;BME280;55182;56.864;60.554;2023-02-01T07:03:36;76874.34;;;-143.60;60.74
68329;BME280;55182;56.864;60.554;2023-02-01T07:06:02;76862.28;;;-143.60;60.81
68329;BME280;55182;56.864;60.554;2023-02-01T07:08:28;76842.19;;;-143.60;60.23
68329;BME280;55182;56.864;60.554;2023-02-01T07:10:53;76824.09;;;-143.60;60.05
68329;BME280;55182;56.864;60.554;2023-02-01T07:13:19;76802.00;;;-143.60;59.64
68329;BME280;55182;56.864;60.554;2023-02-01T07:15:45;76779.88;;;-143.60;59.30
68329;BME280;55182;56.864;60.554;2023-02-01T07:18:10;76753.75;;;-143.60;58.69
68329;BME280;55182;56.864;60.554;2023-02-01T07:20:36;76721.59;;;-143.60;58.41
68329;BME280;55182;56.864;60.554;2023-02-01T07:23:01;76703.50;;;-143.60;58.30
68329;BME280;55182;56.864;60.554;2023-02-01T07:25:27;76683.41;;;-143.60;57.50
68329;BME280;55182;56.864;60.554;2023-02-01T07:27:52;76669.34;;;-143.60;57.01
68329;BME280;55182;56.864;60.554;2023-02-01T07:30:17;76645.22;;;-143.60;57.16
68329;BME280;55182;56.864;60.554;2023-02-01T07:32:43;76625.13;;;-143.60;56.80
68329;BME280;55182;56.864;60.554;2023-02-01T07:35:08;76605.03;;;-143.60;55.94
68329;BME280;55182;56.864;60.554;2023-02-01T07:37:34;76592.97;;;-143.60;56.09
68329;BME280;55182;56.864;60.554;2023-02-01T07:39:59;76580.91;;;-143.60;56.33
68329;BME280;55182;56.864;60.554;2023-02-01T07:42:25;76568.84;;;-143.60;56.01
68329;BME280;55182;56.864;60.554;2023-02-01T07:44:50;76568.84;;;-143.60;55.73
68329;BME280;55182;56.864;60.554;2023-02-01T07:47:15;76558.81;;;-143.60;55.68
68329;BME280;55182;56.864;60.554;2023-02-01T07:49:41;76544.75;;;-143.60;55.70
68329;BME280;55182;56.864;60.554;2023-02-01T07:52:06;76534.69;;;-143.60;55.38
68329;BME280;55182;56.864;60.554;2023-02-01T07:54:32;76512.59;;;-143.60;55.25
68329;BME280;55182;56.864;60.554;2023-02-01T07:56:57;76508.56;;;-143.60;55.04
68329;BME280;55182;56.864;60.554;2023-02-01T07:59:23;76500.53;;;-143.60;55.14
68329;BME280;55182;56.864;60.554;2023-02-01T08:01:49;76480.44;;;-143.60;55.04
68329;BME280;55182;56.864;60.554;2023-02-01T08:04:14;76474.41;;;-143.60;54.71
68329;BME280;55182;56.864;60.554;2023-02-01T08:06:40;76468.38;;;-143.60;54.70
68329;BME280;55182;56.864;60.554;2023-02-01T08:09:06;76468.38;;;-143.60;54.60
68329;BME280;55182;56.864;60.554;2023-02-01T08:11:33;76462.34;;;-143.60;55.87
68329;BME280;55182;56.864;60.554;2023-02-01T08:13:59;76460.34;;;-143.60;54.54
68329;BME280;55182;56.864;60.554;2023-02-01T08:16:25;76456.31;;;-143.60;54.26
68329;BME280;55182;56.864;60.554;2023-02-01T08:18:51;76440.25;;;-143.60;54.56
68329;BME280;55182;56.864;60.554;2023-02-01T08:21:18;76432.19;;;-143.60;54.40
68329;BME280;55182;56.864;60.554;2023-02-01T08:23:44;76432.19;;;-143.60;53.92
68329;BME280;55182;56.864;60.554;2023-02-01T08:26:14;76424.16;;;-143.60;54.16
68329;BME280;55182;56.864;60.554;2023-02-01T08:28:41;76428.19;;;-143.60;53.68
68329;BME280;55182;56.864;60.554;2023-02-01T08:31:08;76426.19;;;-143.60;53.61
68329;BME280;55182;56.864;60.554;2023-02-01T08:33:34;76420.16;;;-143.60;53.70
68329;BME280;55182;56.864;60.554;2023-02-01T08:36:01;76428.19;;;-143.60;54.00
68329;BME280;55182;56.864;60.554;2023-02-01T08:38:27;76424.16;;;-143.60;53.86
68329;BME280;55182;56.864;60.554;2023-02-01T08:40:53;76420.16;;;-143.60;53.98
68329;BME280;55182;56.864;60.554;2023-02-01T08:43:18;76414.13;;;-143.60;53.97
68329;BME280;55182;56.864;60.554;2023-02-01T08:45:44;76408.09;;;-143.60;54.18
68329;BME280;55182;56.864;60.554;2023-02-01T08:48:10;76406.06;;;-143.60;54.05
68329;BME280;55182;56.864;60.554;2023-02-01T08:50:35;76400.06;;;-143.60;53.89
68329;BME280;55182;56.864;60.554;2023-02-01T08:53:01;76383.97;;;-143.60;54.43
68329;BME280;55182;56.864;60.554;2023-02-01T08:55:27;76381.97;;;-143.60;54.57
68329;BME280;55182;56.864;60.554;2023-02-01T08:57:53;76379.94;;;-143.60;54.35
68329;BME280;55182;56.864;60.554;2023-02-01T09:00:19;76373.94;;;-143.60;54.02
68329;BME280;55182;56.864;60.554;2023-02-01T09:02:44;76363.88;;;-143.60;54.16
68329;BME280;55182;56.864;60.554;2023-02-01T09:05:11;76373.94;;;-143.60;54.29
68329;BME280;55182;56.864;60.554;2023-02-01T09:07:37;76365.88;;;-143.60;53.90
68329;BME280;55182;56.864;60.554;2023-02-01T09:10:03;76371.91;;;-143.60;54.11
68329;BME280;55182;56.864;60.554;2023-02-01T09:12:29;76371.91;;;-143.60;53.88
68329;BME280;55182;56.864;60.554;2023-02-01T09:14:56;76359.84;;;-143.60;53.42
68329;BME280;55182;56.864;60.554;2023-02-01T09:17:22;76359.84;;;-143.60;54.29
68329;BME280;55182;56.864;60.554;2023-02-01T09:19:48;76355.84;;;-143.60;54.60
68329;BME280;55182;56.864;60.554;2023-02-01T09:22:14;76357.84;;;-143.60;54.13
68329;BME280;55182;56.864;60.554;2023-02-01T09:24:39;76353.81;;;-143.60;53.69
68329;BME280;55182;56.864;60.554;2023-02-01T09:27:05;76347.81;;;-143.60;54.15
68329;BME280;55182;56.864;60.554;2023-02-01T09:29:30;76347.81;;;-143.60;53.50
68329;BME280;55182;56.864;60.554;2023-02-01T09:31:56;76347.81;;;-143.60;54.26
68329;BME280;55182;56.864;60.554;2023-02-01T09:34:21;76337.75;;;-143.60;54.20
68329;BME280;55182;56.864;60.554;2023-02-01T09:36:47;76339.75;;;-143.60;53.74
68329;BME280;55182;56.864;60.554;2023-02-01T09:39:12;76347.81;;;-143.60;53.96
68329;BME280;55182;56.864;60.554;2023-02-01T09:46:41;76341.78;;;-143.60;54.05
68329;BME280;55182;56.864;60.554;2023-02-01T09:49:12;76339.75;;;-143.60;54.02
68329;BME280;55182;56.864;60.554;2023-02-01T09:51:40;76349.81;;;-143.60;53.72
68329;BME280;55182;56.864;60.554;2023-02-01T09:54:15;76363.88;;;-143.60;54.51
68329;BME280;55182;56.864;60.554;2023-02-01T09:56:44;76375.94;;;-143.60;54.21
68329;BME280;55182;56.864;60.554;2023-02-01T10:01:45;76394.03;;;-143.60;54.10
68329;BME280;55182;56.864;60.554;2023-02-01T10:04:13;76400.06;;;-143.60;54.38
68329;BME280;55182;56.864;60.554;2023-02-01T10:09:44;76412.09;;;-143.60;54.43
68329;BME280;55182;56.864;60.554;2023-02-01T10:17:18;76420.16;;;-143.60;54.50
68329;BME280;55182;56.864;60.554;2023-02-01T10:20:10;76420.16;;;-143.60;54.06
68329;BME280;55182;56.864;60.554;2023-02-01T10:22:45;76424.16;;;-143.60;54.60
68329;BME280;55182;56.864;60.554;2023-02-01T10:27:56;76424.16;;;-143.60;54.35
68329;BME280;55182;56.864;60.554;2023-02-01T10:30:23;76424.16;;;-143.60;54.51
68329;BME280;55182;56.864;60.554;2023-02-01T10:32:49;76424.16;;;-143.60;54.92
68329;BME280;55182;56.864;60.554;2023-02-01T10:35:18;76424.16;;;-143.60;54.50
68329;BME280;55182;56.864;60.554;2023-02-01T10:37:44;76422.16;;;-143.60;54.90
68329;BME280;55182;56.864;60.554;2023-02-01T10:40:20;76416.13;;;-143.60;54.96
68329;BME280;55182;56.864;60.554;2023-02-01T10:42:46;76408.09;;;-143.60;54.32
68329;BME280;55182;56.864;60.554;2023-02-01T10:45:13;76408.09;;;-143.60;54.05
68329;BME280;55182;56.864;60.554;2023-02-01T10:47:40;76402.06;;;-143.60;54.44
68329;BME280;55182;56.864;60.554;2023-02-01T10:52:42;76400.06;;;-143.60;53.78
68329;BME280;55182;56.864;60.554;2023-02-01T10:57:55;76410.09;;;-143.60;53.42
68329;BME280;55182;56.864;60.554;2023-02-01T11:00:21;76404.06;;;-143.60;53.93
68329;BME280;55182;56.864;60.554;2023-02-01T11:02:47;76414.13;;;-143.60;53.74
68329;BME280;55182;56.864;60.554;2023-02-01T11:05:12;76412.09;;;-143.60;52.74
68329;BME280;55182;56.864;60.554;2023-02-01T11:07:38;76412.09;;;-143.60;52.53
68329;BME280;55182;56.864;60.554;2023-02-01T11:10:04;76410.09;;;-143.60;52.40
68329;BME280;55182;56.864;60.554;2023-02-01T11:12:34;76406.06;;;-143.60;53.56
68329;BME280;55182;56.864;60.554;2023-02-01T11:17:39;76400.06;;;-143.60;53.04
68329;BME280;55182;56.864;60.554;2023-02-01T11:20:06;76394.03;;;-143.60;53.65
68329;BME280;55182;56.864;60.554;2023-02-01T11:22:44;76404.06;;;-143.60;53.38
68329;BME280;55182;56.864;60.554;2023-02-01T11:25:13;76394.03;;;-143.60;52.90
68329;BME280;55182;56.864;60.554;2023-02-01T11:27:41;76396.03;;;-143.60;52.77
68329;BME280;55182;56.864;60.554;2023-02-01T11:30:07;76402.06;;;-143.60;52.74
68329;BME280;55182;56.864;60.554;2023-02-01T11:32:33;76414.13;;;-143.60;53.20
68329;BME280;55182;56.864;60.554;2023-02-01T11:35:02;76420.16;;;-143.60;53.15
68329;BME280;55182;56.864;60.554;2023-02-01T11:37:31;76432.19;;;-143.60;53.43
68329;BME280;55182;56.864;60.554;2023-02-01T11:40:43;76444.25;;;-143.60;53.40
68329;BME280;55182;56.864;60.554;2023-02-01T11:42:54;76460.34;;;-143.60;54.66
68329;BME280;55182;56.864;60.554;2023-02-01T11:45:25;76478.44;;;-143.60;53.95
68329;BME280;55182;56.864;60.554;2023-02-01T11:47:52;76496.50;;;-143.60;54.24
68329;BME280;55182;56.864;60.554;2023-02-01T12:11:18;76586.94;;;-143.60;56.08
68329;BME280;55182;56.864;60.554;2023-02-01T12:16:31;76603.03;;;-143.60;56.07
68329;BME280;55182;56.864;60.554;2023-02-01T12:24:20;76588.97;;;-143.60;55.33
68329;BME280;55182;56.864;60.554;2023-02-01T12:31:59;76564.84;;;-143.60;55.42
68329;BME280;55182;56.864;60.554;2023-02-01T12:34:47;76568.84;;;-143.60;55.75
68329;BME280;55182;56.864;60.554;2023-02-01T12:37:21;76564.84;;;-143.60;55.16
68329;BME280;55182;56.864;60.554;2023-02-01T12:44:54;76576.91;;;-143.60;56.15
68329;BME280;55182;56.864;60.554;2023-02-01T12:52:38;76586.94;;;-143.60;54.71
68329;BME280;55182;56.864;60.554;2023-02-01T12:55:16;76572.88;;;-143.60;54.77
68329;BME280;55182;56.864;60.554;2023-02-01T12:57:44;76568.84;;;-143.60;54.09
68329;BME280;55182;56.864;60.554;2023-02-01T13:02:44;76564.84;;;-143.60;53.84
68329;BME280;55182;56.864;60.554;2023-02-01T13:05:19;76564.84;;;-143.60;53.82
68329;BME280;55182;56.864;60.554;2023-02-01T13:07:55;76570.88;;;-143.60;53.81
68329;BME280;55182;56.864;60.554;2023-02-01T13:10:32;76584.94;;;-143.60;53.97
68329;BME280;55182;56.864;60.554;2023-02-01T13:13:02;76588.97;;;-143.60;53.59
68329;BME280;55182;56.864;60.554;2023-02-01T13:15:30;76601.00;;;-143.60;53.33
68329;BME280;55182;56.864;60.554;2023-02-01T13:17:59;76613.06;;;-143.60;53.95
68329;BME280;55182;56.864;60.554;2023-02-01T13:20:49;76615.09;;;-143.60;53.46
68329;BME280;55182;56.864;60.554;2023-02-01T13:23:31;76629.16;;;-143.60;53.63
68329;BME280;55182;56.864;60.554;2023-02-01T13:25:59;76637.19;;;-143.60;53.78
68329;BME280;55182;56.864;60.554;2023-02-01T13:28:39;76633.16;;;-143.60;53.75
68329;BME280;55182;56.864;60.554;2023-02-01T13:36:24;76645.22;;;-143.60;53.59
68329;BME280;55182;56.864;60.554;2023-02-01T13:42:00;76667.34;;;-143.60;53.34
68329;BME280;55182;56.864;60.554;2023-02-01T13:44:44;76673.38;;;-143.60;53.81
68329;BME280;55182;56.864;60.554;2023-02-01T13:47:21;76685.44;;;-143.60;53.65
68329;BME280;55182;56.864;60.554;2023-02-01T13:49:48;76693.47;;;-143.60;53.69
68329;BME280;55182;56.864;60.554;2023-02-01T13:52:22;76705.53;;;-143.60;53.52
68329;BME280;55182;56.864;60.554;2023-02-01T13:54:49;76713.56;;;-143.60;53.65
68329;BME280;55182;56.864;60.554;2023-02-01T13:57:34;76713.56;;;-143.60;53.64
68329;BME280;55182;56.864;60.554;2023-02-01T14:05:01;76709.53;;;-143.60;53.46
68329;BME280;55182;56.864;60.554;2023-02-01T14:07:26;76711.56;;;-143.60;53.61
68329;BME280;55182;56.864;60.554;2023-02-01T14:09:52;76713.56;;;-143.60;53.19
68329;BME280;55182;56.864;60.554;2023-02-01T14:17:43;76735.66;;;-143.60;53.00
68329;BME280;55182;56.864;60.554;2023-02-01T14:23:14;76741.69;;;-143.60;52.89
68329;BME280;55182;56.864;60.554;2023-02-01T14:25:41;76739.69;;;-143.60;52.32
68329;BME280;55182;56.864;60.554;2023-02-01T14:28:25;76737.69;;;-143.60;52.51
68329;BME280;55182;56.864;60.554;2023-02-01T14:30:53;76737.69;;;-143.60;51.76
68329;BME280;55182;56.864;60.554;2023-02-01T14:33:26;76733.66;;;-143.60;51.66
68329;BME280;55182;56.864;60.554;2023-02-01T14:36:11;76731.66;;;-143.60;50.95
68329;BME280;55182;56.864;60.554;2023-02-01T14:38:37;76723.59;;;-143.60;51.19
68329;BME280;55182;56.864;60.554;2023-02-01T14:41:37;76729.63;;;-143.60;50.65
68329;BME280;55182;56.864;60.554;2023-02-01T14:44:22;76729.63;;;-143.60;51.00
68329;BME280;55182;56.864;60.554;2023-02-01T14:49:29;76727.63;;;-143.60;50.58
68329;BME280;55182;56.864;60.554;2023-02-01T14:51:55;76729.63;;;-143.60;50.58